sensor_id;sensor_type;location;lat;lon;timestamp;temperature;humidity
324;DHT22;149;51.094;17.002;2023-02-28T00:01:19;1.40;99.90
324;DHT22;149;51.094;17.002;2023-02-28T00:03:46;1.40;99.90
324;DHT22;149;51.094;17.002;2023-02-28T00:06:13;1.40;99.90
324;DHT22;149;51.094;17.002;2023-02-28T00:08:40;1.40;99.90
324;DHT22;149;51.094;17.002;2023-02-28T00:11:11;1.50;99.90
324;DHT22;149;51.094;17.002;2023-02-28T00:13:45;1.50;99.90
324;DHT22;149;51.094;17.002;2023-02-28T00:16:19;1.60;99.90
324;DHT22;149;51.094;17.002;2023-02-28T00:18:47;1.40;99.90
324;DHT22;149;51.094;17.002;2023-02-28T00:21:16;1.50;99.90
324;DHT22;149;51.094;17.002;2023-02-28T00:23:43;1.40;99.90
324;DHT22;149;51.094;17.002;2023-02-28T00:26:10;1.40;99.90
324;DHT22;149;51.094;17.002;2023-02-28T00:28:37;1.40;99.90
324;DHT22;149;51.094;17.002;2023-02-28T00:31:04;1.30;99.90
324;DHT22;149;51.094;17.002;2023-02-28T00:33:32;1.40;99.90
324;DHT22;149;51.094;17.002;2023-02-28T00:36:07;1.60;99.90
324;DHT22;149;51.094;17.002;2023-02-28T00:38:35;1.50;99.90
324;DHT22;149;51.094;17.002;2023-02-28T00:41:02;1.60;99.90
324;DHT22;149;51.094;17.002;2023-02-28T00:43:33;1.50;99.90
324;DHT22;149;51.094;17.002;2023-02-28T00:46:04;1.40;99.90
324;DHT22;149;51.094;17.002;2023-02-28T00:48:31;1.50;99.90
324;DHT22;149;51.094;17.002;2023-02-28T00:50:58;1.60;99.90
324;DHT22;149;51.094;17.002;2023-02-28T00:53:29;1.70;99.90
324;DHT22;149;51.094;17.002;2023-02-28T00:55:56;1.60;99.90
324;DHT22;149;51.094;17.002;2023-02-28T00:58:25;1.60;99.90
324;DHT22;149;51.094;17.002;2023-02-28T01:00:53;1.60;99.90
324;DHT22;149;51.094;17.002;2023-02-28T01:03:21;1.60;99.90
324;DHT22;149;51.094;17.002;2023-02-28T01:05:49;1.50;99.90
324;DHT22;149;51.094;17.002;2023-02-28T01:08:16;1.20;99.90
324;DHT22;149;51.094;17.002;2023-02-28T01:10:43;1.30;99.90
324;DHT22;149;51.094;17.002;2023-02-28T01:13:11;1.30;99.90
324;DHT22;149;51.094;17.002;2023-02-28T01:15:39;1.40;99.90
324;DHT22;149;51.094;17.002;2023-02-28T01:18:29;1.70;99.90
324;DHT22;149;51.094;17.002;2023-02-28T01:24:09;1.70;99.90
324;DHT22;149;51.094;17.002;2023-02-28T01:26:39;1.50;99.90
324;DHT22;149;51.094;17.002;2023-02-28T01:29:08;1.40;99.90
324;DHT22;149;51.094;17.002;2023-02-28T01:31:38;1.40;99.90
324;DHT22;149;51.094;17.002;2023-02-28T01:34:17;1.30;99.90
324;DHT22;149;51.094;17.002;2023-02-28T01:37:19;1.30;99.90
324;DHT22;149;51.094;17.002;2023-02-28T01:40:09;1.50;99.90
324;DHT22;149;51.094;17.002;2023-02-28T01:42:39;1.50;99.90
324;DHT22;149;51.094;17.002;2023-02-28T01:45:27;1.40;99.90
324;DHT22;149;51.094;17.002;2023-02-28T01:48:02;1.40;99.90
324;DHT22;149;51.094;17.002;2023-02-28T01:54:02;1.90;99.90
324;DHT22;149;51.094;17.002;2023-02-28T01:56:56;2.00;99.90
324;DHT22;149;51.094;17.002;2023-02-28T01:59:54;2.10;99.90
324;DHT22;149;51.094;17.002;2023-02-28T02:03:04;2.00;99.90
324;DHT22;149;51.094;17.002;2023-02-28T02:05:41;2.00;99.90
324;DHT22;149;51.094;17.002;2023-02-28T02:08:26;2.10;99.90
324;DHT22;149;51.094;17.002;2023-02-28T02:11:04;1.80;99.90
324;DHT22;149;51.094;17.002;2023-02-28T02:16:52;1.90;99.90
324;DHT22;149;51.094;17.002;2023-02-28T02:19:46;1.90;99.90
324;DHT22;149;51.094;17.002;2023-02-28T02:25:29;1.80;99.90
324;DHT22;149;51.094;17.002;2023-02-28T02:30:53;1.70;99.90
324;DHT22;149;51.094;17.002;2023-02-28T02:33:38;1.40;99.90
324;DHT22;149;51.094;17.002;2023-02-28T02:36:18;1.30;99.90
324;DHT22;149;51.094;17.002;2023-02-28T02:38:53;1.40;99.90
324;DHT22;149;51.094;17.002;2023-02-28T02:41:33;1.50;99.90
324;DHT22;149;51.094;17.002;2023-02-28T02:44:10;1.40;99.90
324;DHT22;149;51.094;17.002;2023-02-28T02:46:44;1.30;99.90
324;DHT22;149;51.094;17.002;2023-02-28T02:49:38;1.40;99.90
324;DHT22;149;51.094;17.002;2023-02-28T02:52:06;1.70;99.90
324;DHT22;149;51.094;17.002;2023-02-28T02:54:41;1.70;99.90
324;DHT22;149;51.094;17.002;2023-02-28T02:57:14;1.80;99.90
324;DHT22;149;51.094;17.002;2023-02-28T02:59:44;1.90;99.90
324;DHT22;149;51.094;17.002;2023-02-28T03:02:15;1.80;99.90
324;DHT22;149;51.094;17.002;2023-02-28T03:04:46;1.70;99.90
324;DHT22;149;51.094;17.002;2023-02-28T03:07:21;1.70;99.90
324;DHT22;149;51.094;17.002;2023-02-28T03:09:51;1.20;99.90
324;DHT22;149;51.094;17.002;2023-02-28T03:12:20;1.40;99.90
324;DHT22;149;51.094;17.002;2023-02-28T03:15:40;1.10;99.90
324;DHT22;149;51.094;17.002;2023-02-28T03:19:03;1.20;99.90
324;DHT22;149;51.094;17.002;2023-02-28T03:21:29;0.90;99.90
324;DHT22;149;51.094;17.002;2023-02-28T03:27:27;1.40;99.90
324;DHT22;149;51.094;17.002;2023-02-28T03:32:59;1.40;99.90
324;DHT22;149;51.094;17.002;2023-02-28T03:35:45;1.50;99.90
324;DHT22;149;51.094;17.002;2023-02-28T03:38:41;1.20;99.90
324;DHT22;149;51.094;17.002;2023-02-28T03:45:04;1.30;99.90
324;DHT22;149;51.094;17.002;2023-02-28T03:48:07;1.40;99.90
324;DHT22;149;51.094;17.002;2023-02-28T03:50:41;1.40;99.90
324;DHT22;149;51.094;17.002;2023-02-28T03:53:52;1.40;99.90
324;DHT22;149;51.094;17.002;2023-02-28T03:57:07;1.10;99.90
324;DHT22;149;51.094;17.002;2023-02-28T04:03:08;1.20;99.90
324;DHT22;149;51.094;17.002;2023-02-28T04:05:50;1.20;99.90
324;DHT22;149;51.094;17.002;2023-02-28T04:08:18;1.20;99.90
324;DHT22;149;51.094;17.002;2023-02-28T04:10:50;1.20;99.90
324;DHT22;149;51.094;17.002;2023-02-28T04:13:18;1.10;99.90
324;DHT22;149;51.094;17.002;2023-02-28T04:15:44;1.10;99.90
324;DHT22;149;51.094;17.002;2023-02-28T04:18:11;1.10;99.90
324;DHT22;149;51.094;17.002;2023-02-28T04:20:38;1.20;99.90
324;DHT22;149;51.094;17.002;2023-02-28T04:23:05;1.40;99.90
324;DHT22;149;51.094;17.002;2023-02-28T04:25:32;1.70;99.90
324;DHT22;149;51.094;17.002;2023-02-28T04:27:59;1.50;99.90
324;DHT22;149;51.094;17.002;2023-02-28T04:30:27;1.40;99.90
324;DHT22;149;51.094;17.002;2023-02-28T04:32:54;1.60;99.90
324;DHT22;149;51.094;17.002;2023-02-28T04:35:21;1.60;99.90
324;DHT22;149;51.094;17.002;2023-02-28T04:37:47;1.60;99.90
324;DHT22;149;51.094;17.002;2023-02-28T04:40:15;1.70;99.90
324;DHT22;149;51.094;17.002;2023-02-28T04:42:42;1.40;99.90
324;DHT22;149;51.094;17.002;2023-02-28T04:45:09;1.40;99.90
324;DHT22;149;51.094;17.002;2023-02-28T04:47:37;1.40;99.90
324;DHT22;149;51.094;17.002;2023-02-28T04:50:04;1.40;99.90
324;DHT22;149;51.094;17.002;2023-02-28T04:52:31;1.40;99.90
324;DHT22;149;51.094;17.002;2023-02-28T04:54:58;1.40;99.90
324;DHT22;149;51.094;17.002;2023-02-28T04:57:25;1.30;99.90
324;DHT22;149;51.094;17.002;2023-02-28T04:59:52;1.50;99.90
324;DHT22;149;51.094;17.002;2023-02-28T05:02:22;1.50;99.90
324;DHT22;149;51.094;17.002;2023-02-28T05:04:50;1.20;99.90
324;DHT22;149;51.094;17.002;2023-02-28T05:07:17;1.20;99.90
324;DHT22;149;51.094;17.002;2023-02-28T05:09:45;1.20;99.90
324;DHT22;149;51.094;17.002;2023-02-28T05:12:11;1.30;99.90
324;DHT22;149;51.094;17.002;2023-02-28T05:14:38;1.30;99.90
324;DHT22;149;51.094;17.002;2023-02-28T05:17:05;1.40;99.90
324;DHT22;149;51.094;17.002;2023-02-28T05:19:32;1.30;99.90
324;DHT22;149;51.094;17.002;2023-02-28T05:21:59;1.40;99.90
324;DHT22;149;51.094;17.002;2023-02-28T05:24:26;1.60;99.90
324;DHT22;149;51.094;17.002;2023-02-28T05:26:54;1.80;99.90
324;DHT22;149;51.094;17.002;2023-02-28T05:29:21;2.00;99.90
324;DHT22;149;51.094;17.002;2023-02-28T05:31:49;1.80;99.90
324;DHT22;149;51.094;17.002;2023-02-28T05:34:16;1.70;99.90
324;DHT22;149;51.094;17.002;2023-02-28T05:36:43;1.60;99.90
324;DHT22;149;51.094;17.002;2023-02-28T05:39:10;1.40;99.90
324;DHT22;149;51.094;17.002;2023-02-28T05:41:42;1.40;99.90
324;DHT22;149;51.094;17.002;2023-02-28T05:44:10;1.60;99.90
324;DHT22;149;51.094;17.002;2023-02-28T05:46:37;1.40;99.90
324;DHT22;149;51.094;17.002;2023-02-28T05:49:05;1.20;99.90
324;DHT22;149;51.094;17.002;2023-02-28T05:51:33;1.30;99.90
324;DHT22;149;51.094;17.002;2023-02-28T05:54:01;1.20;99.90
324;DHT22;149;51.094;17.002;2023-02-28T05:56:28;1.20;99.90
324;DHT22;149;51.094;17.002;2023-02-28T05:58:55;1.30;99.90
324;DHT22;149;51.094;17.002;2023-02-28T06:01:34;1.40;99.90
324;DHT22;149;51.094;17.002;2023-02-28T06:04:02;1.30;99.90
324;DHT22;149;51.094;17.002;2023-02-28T06:06:29;1.40;99.90
324;DHT22;149;51.094;17.002;2023-02-28T06:08:57;1.50;99.90
324;DHT22;149;51.094;17.002;2023-02-28T06:11:24;1.80;99.90
324;DHT22;149;51.094;17.002;2023-02-28T06:13:57;2.00;99.90
324;DHT22;149;51.094;17.002;2023-02-28T06:16:30;1.70;99.90
324;DHT22;149;51.094;17.002;2023-02-28T06:18:59;2.00;99.90
324;DHT22;149;51.094;17.002;2023-02-28T06:21:26;2.10;99.90
324;DHT22;149;51.094;17.002;2023-02-28T06:23:55;2.70;99.90
324;DHT22;149;51.094;17.002;2023-02-28T06:26:23;1.90;99.90
324;DHT22;149;51.094;17.002;2023-02-28T06:28:50;1.80;99.90
324;DHT22;149;51.094;17.002;2023-02-28T06:31:18;2.00;99.90
324;DHT22;149;51.094;17.002;2023-02-28T06:33:45;1.80;99.90
324;DHT22;149;51.094;17.002;2023-02-28T06:36:17;1.90;99.90
324;DHT22;149;51.094;17.002;2023-02-28T06:38:57;2.10;99.90
324;DHT22;149;51.094;17.002;2023-02-28T06:41:26;2.10;99.90
324;DHT22;149;51.094;17.002;2023-02-28T06:44:05;2.20;99.90
324;DHT22;149;51.094;17.002;2023-02-28T06:46:33;3.00;99.90
324;DHT22;149;51.094;17.002;2023-02-28T06:49:00;3.50;99.90
324;DHT22;149;51.094;17.002;2023-02-28T06:51:27;3.50;99.90
324;DHT22;149;51.094;17.002;2023-02-28T06:53:54;3.20;99.90
324;DHT22;149;51.094;17.002;2023-02-28T06:56:21;3.10;99.90
324;DHT22;149;51.094;17.002;2023-02-28T06:58:49;2.80;99.90
324;DHT22;149;51.094;17.002;2023-02-28T07:01:17;2.70;99.90
324;DHT22;149;51.094;17.002;2023-02-28T07:03:46;2.60;99.90
324;DHT22;149;51.094;17.002;2023-02-28T07:06:13;2.90;99.90
324;DHT22;149;51.094;17.002;2023-02-28T07:08:40;3.40;99.90
324;DHT22;149;51.094;17.002;2023-02-28T07:11:07;3.70;99.90
324;DHT22;149;51.094;17.002;2023-02-28T07:13:35;4.00;99.90
324;DHT22;149;51.094;17.002;2023-02-28T07:16:04;4.20;99.90
324;DHT22;149;51.094;17.002;2023-02-28T07:18:32;4.40;99.90
324;DHT22;149;51.094;17.002;2023-02-28T07:21:02;4.70;99.90
324;DHT22;149;51.094;17.002;2023-02-28T07:23:29;5.30;99.90
324;DHT22;149;51.094;17.002;2023-02-28T07:25:56;5.00;99.90
324;DHT22;149;51.094;17.002;2023-02-28T07:28:23;5.00;99.90
324;DHT22;149;51.094;17.002;2023-02-28T07:30:50;5.30;99.90
324;DHT22;149;51.094;17.002;2023-02-28T07:33:17;5.50;99.90
324;DHT22;149;51.094;17.002;2023-02-28T07:35:45;6.10;99.90
324;DHT22;149;51.094;17.002;2023-02-28T07:38:11;6.30;99.90
324;DHT22;149;51.094;17.002;2023-02-28T07:40:40;7.30;99.90
324;DHT22;149;51.094;17.002;2023-02-28T07:43:07;8.20;99.90
324;DHT22;149;51.094;17.002;2023-02-28T07:45:35;9.30;99.90
324;DHT22;149;51.094;17.002;2023-02-28T07:48:02;10.40;99.90
324;DHT22;149;51.094;17.002;2023-02-28T07:50:29;11.30;99.90
324;DHT22;149;51.094;17.002;2023-02-28T07:53:00;12.70;93.70
324;DHT22;149;51.094;17.002;2023-02-28T07:55:28;12.90;93.30
324;DHT22;149;51.094;17.002;2023-02-28T07:58:02;12.70;89.80
324;DHT22;149;51.094;17.002;2023-02-28T08:00:29;12.70;88.90
324;DHT22;149;51.094;17.002;2023-02-28T08:02:58;12.60;87.60
324;DHT22;149;51.094;17.002;2023-02-28T08:05:24;13.30;86.70
324;DHT22;149;51.094;17.002;2023-02-28T08:07:53;12.50;81.70
324;DHT22;149;51.094;17.002;2023-02-28T08:10:20;10.40;89.30
324;DHT22;149;51.094;17.002;2023-02-28T08:12:47;11.20;90.60
324;DHT22;149;51.094;17.002;2023-02-28T08:15:14;12.20;90.20
324;DHT22;149;51.094;17.002;2023-02-28T08:17:41;12.90;85.20
324;DHT22;149;51.094;17.002;2023-02-28T08:20:08;14.20;84.00
324;DHT22;149;51.094;17.002;2023-02-28T08:22:37;13.40;80.00
324;DHT22;149;51.094;17.002;2023-02-28T08:25:07;12.00;81.00
324;DHT22;149;51.094;17.002;2023-02-28T08:27:35;12.00;83.90
324;DHT22;149;51.094;17.002;2023-02-28T08:30:02;12.90;82.90
324;DHT22;149;51.094;17.002;2023-02-28T08:32:29;14.30;82.10
324;DHT22;149;51.094;17.002;2023-02-28T08:34:56;14.60;76.60
324;DHT22;149;51.094;17.002;2023-02-28T08:37:23;15.40;75.90
324;DHT22;149;51.094;17.002;2023-02-28T08:39:51;15.70;70.90
324;DHT22;149;51.094;17.002;2023-02-28T08:42:22;16.20;66.50
324;DHT22;149;51.094;17.002;2023-02-28T08:44:49;16.80;67.60
324;DHT22;149;51.094;17.002;2023-02-28T08:47:22;16.90;65.50
324;DHT22;149;51.094;17.002;2023-02-28T08:49:49;15.00;65.10
324;DHT22;149;51.094;17.002;2023-02-28T08:52:16;14.10;65.50
324;DHT22;149;51.094;17.002;2023-02-28T08:54:43;12.30;69.10
324;DHT22;149;51.094;17.002;2023-02-28T08:57:10;10.40;74.20
324;DHT22;149;51.094;17.002;2023-02-28T08:59:40;10.40;82.50
324;DHT22;149;51.094;17.002;2023-02-28T09:02:08;12.20;77.90
324;DHT22;149;51.094;17.002;2023-02-28T09:04:35;11.80;78.70
324;DHT22;149;51.094;17.002;2023-02-28T09:07:02;10.60;78.30
324;DHT22;149;51.094;17.002;2023-02-28T09:09:29;10.20;82.50
324;DHT22;149;51.094;17.002;2023-02-28T09:11:57;10.30;84.70
324;DHT22;149;51.094;17.002;2023-02-28T09:14:24;9.00;90.30
324;DHT22;149;51.094;17.002;2023-02-28T09:16:51;9.40;91.20
324;DHT22;149;51.094;17.002;2023-02-28T09:19:18;10.10;88.50
324;DHT22;149;51.094;17.002;2023-02-28T09:21:45;9.40;90.60
324;DHT22;149;51.094;17.002;2023-02-28T09:24:12;9.90;91.50
324;DHT22;149;51.094;17.002;2023-02-28T09:26:41;10.30;91.70
324;DHT22;149;51.094;17.002;2023-02-28T09:29:13;11.10;87.00
324;DHT22;149;51.094;17.002;2023-02-28T09:31:42;11.60;85.00
324;DHT22;149;51.094;17.002;2023-02-28T09:34:10;9.30;89.30
324;DHT22;149;51.094;17.002;2023-02-28T09:36:39;8.10;92.20
324;DHT22;149;51.094;17.002;2023-02-28T09:39:12;6.80;99.10
324;DHT22;149;51.094;17.002;2023-02-28T09:41:44;5.90;99.90
324;DHT22;149;51.094;17.002;2023-02-28T09:47:39;5.60;99.90
324;DHT22;149;51.094;17.002;2023-02-28T09:50:29;5.60;99.90
324;DHT22;149;51.094;17.002;2023-02-28T09:53:02;5.40;99.90
324;DHT22;149;51.094;17.002;2023-02-28T09:55:37;5.30;99.90
324;DHT22;149;51.094;17.002;2023-02-28T10:01:07;4.90;99.90
324;DHT22;149;51.094;17.002;2023-02-28T10:03:39;5.20;99.90
324;DHT22;149;51.094;17.002;2023-02-28T10:06:27;5.10;99.90
324;DHT22;149;51.094;17.002;2023-02-28T10:09:17;5.00;99.90
324;DHT22;149;51.094;17.002;2023-02-28T10:11:45;4.80;99.90
324;DHT22;149;51.094;17.002;2023-02-28T10:14:22;4.50;99.90
324;DHT22;149;51.094;17.002;2023-02-28T10:16:57;4.50;99.90
324;DHT22;149;51.094;17.002;2023-02-28T10:22:19;4.30;99.90
324;DHT22;149;51.094;17.002;2023-02-28T10:24:52;4.20;99.90
324;DHT22;149;51.094;17.002;2023-02-28T10:27:28;4.40;99.90
324;DHT22;149;51.094;17.002;2023-02-28T10:29:57;4.60;99.90
324;DHT22;149;51.094;17.002;2023-02-28T10:32:32;4.80;99.90
324;DHT22;149;51.094;17.002;2023-02-28T10:37:39;5.00;99.90
324;DHT22;149;51.094;17.002;2023-02-28T10:40:24;4.90;99.90
324;DHT22;149;51.094;17.002;2023-02-28T10:43:16;4.80;99.90
324;DHT22;149;51.094;17.002;2023-02-28T10:46:19;4.60;99.90
324;DHT22;149;51.094;17.002;2023-02-28T10:49:04;4.60;99.90
324;DHT22;149;51.094;17.002;2023-02-28T10:51:39;4.60;99.90
324;DHT22;149;51.094;17.002;2023-02-28T10:54:36;4.70;99.90
324;DHT22;149;51.094;17.002;2023-02-28T10:57:11;4.70;99.90
324;DHT22;149;51.094;17.002;2023-02-28T10:59:41;4.60;99.90
324;DHT22;149;51.094;17.002;2023-02-28T11:02:29;4.60;99.90
324;DHT22;149;51.094;17.002;2023-02-28T11:04:56;4.50;99.90
324;DHT22;149;51.094;17.002;2023-02-28T11:07:25;4.50;99.90
324;DHT22;149;51.094;17.002;2023-02-28T11:10:17;4.30;99.90
324;DHT22;149;51.094;17.002;2023-02-28T11:12:46;4.50;99.90
324;DHT22;149;51.094;17.002;2023-02-28T11:15:24;4.50;99.90
324;DHT22;149;51.094;17.002;2023-02-28T11:20:26;4.50;99.90
324;DHT22;149;51.094;17.002;2023-02-28T11:22:55;4.60;99.90
324;DHT22;149;51.094;17.002;2023-02-28T11:25:26;4.50;99.90
324;DHT22;149;51.094;17.002;2023-02-28T11:27:58;4.50;99.90
324;DHT22;149;51.094;17.002;2023-02-28T11:30:41;4.50;99.90
324;DHT22;149;51.094;17.002;2023-02-28T11:33:42;4.50;99.90
324;DHT22;149;51.094;17.002;2023-02-28T11:36:23;4.50;99.90
324;DHT22;149;51.094;17.002;2023-02-28T11:38:56;4.40;99.90
324;DHT22;149;51.094;17.002;2023-02-28T11:41:28;4.30;99.90
324;DHT22;149;51.094;17.002;2023-02-28T11:44:18;4.20;99.90
324;DHT22;149;51.094;17.002;2023-02-28T11:46:50;4.30;99.90
324;DHT22;149;51.094;17.002;2023-02-28T12:06:32;4.80;99.90
324;DHT22;149;51.094;17.002;2023-02-28T12:12:02;4.80;99.90
324;DHT22;149;51.094;17.002;2023-02-28T12:20:05;4.70;99.90
324;DHT22;149;51.094;17.002;2023-02-28T12:27:49;4.70;99.90
324;DHT22;149;51.094;17.002;2023-02-28T12:30:24;4.60;99.90
324;DHT22;149;51.094;17.002;2023-02-28T12:33:06;4.80;99.90
324;DHT22;149;51.094;17.002;2023-02-28T12:35:44;4.90;99.90
324;DHT22;149;51.094;17.002;2023-02-28T12:38:27;4.80;99.90
324;DHT22;149;51.094;17.002;2023-02-28T12:43:45;5.10;99.90
324;DHT22;149;51.094;17.002;2023-02-28T12:46:19;5.10;99.90
324;DHT22;149;51.094;17.002;2023-02-28T12:48:52;4.90;99.90
324;DHT22;149;51.094;17.002;2023-02-28T12:51:19;4.90;99.90
324;DHT22;149;51.094;17.002;2023-02-28T12:56:52;4.90;99.90
324;DHT22;149;51.094;17.002;2023-02-28T12:59:34;4.70;99.90
324;DHT22;149;51.094;17.002;2023-02-28T13:10:00;4.70;99.90
324;DHT22;149;51.094;17.002;2023-02-28T13:12:29;4.80;99.90
324;DHT22;149;51.094;17.002;2023-02-28T13:17:32;4.60;99.90
324;DHT22;149;51.094;17.002;2023-02-28T13:19:59;4.60;99.90
324;DHT22;149;51.094;17.002;2023-02-28T13:22:42;4.70;99.90
324;DHT22;149;51.094;17.002;2023-02-28T13:27:54;4.90;99.90
324;DHT22;149;51.094;17.002;2023-02-28T13:34:04;4.70;99.90
324;DHT22;149;51.094;17.002;2023-02-28T13:36:31;4.60;99.90
324;DHT22;149;51.094;17.002;2023-02-28T13:39:03;4.50;99.90
324;DHT22;149;51.094;17.002;2023-02-28T13:41:49;4.50;99.90
324;DHT22;149;51.094;17.002;2023-02-28T13:44:22;4.60;99.90
324;DHT22;149;51.094;17.002;2023-02-28T13:52:18;4.70;99.90
324;DHT22;149;51.094;17.002;2023-02-28T14:00:33;4.60;99.90
324;DHT22;149;51.094;17.002;2023-02-28T14:06:22;4.80;99.90
324;DHT22;149;51.094;17.002;2023-02-28T14:08:58;4.70;99.90
324;DHT22;149;51.094;17.002;2023-02-28T14:11:32;4.70;99.90
324;DHT22;149;51.094;17.002;2023-02-28T14:14:00;4.70;99.90
324;DHT22;149;51.094;17.002;2023-02-28T14:16:43;4.60;99.90
324;DHT22;149;51.094;17.002;2023-02-28T14:19:15;4.50;99.90
324;DHT22;149;51.094;17.002;2023-02-28T14:21:59;4.40;99.90
324;DHT22;149;51.094;17.002;2023-02-28T14:35:44;4.20;99.90
324;DHT22;149;51.094;17.002;2023-02-28T14:38:29;4.40;99.90
324;DHT22;149;51.094;17.002;2023-02-28T14:41:00;4.30;99.90
324;DHT22;149;51.094;17.002;2023-02-28T14:43:29;4.30;99.90
324;DHT22;149;51.094;17.002;2023-02-28T14:46:01;4.20;99.90
324;DHT22;149;51.094;17.002;2023-02-28T14:48:29;4.10;99.90
324;DHT22;149;51.094;17.002;2023-02-28T14:50:59;4.10;99.90
324;DHT22;149;51.094;17.002;2023-02-28T14:53:35;4.00;99.90
324;DHT22;149;51.094;17.002;2023-02-28T14:56:03;4.20;99.90
324;DHT22;149;51.094;17.002;2023-02-28T14:58:33;4.10;99.90
324;DHT22;149;51.094;17.002;2023-02-28T15:01:02;4.00;99.90
324;DHT22;149;51.094;17.002;2023-02-28T15:03:40;4.00;99.90
324;DHT22;149;51.094;17.002;2023-02-28T15:06:16;4.20;99.90
324;DHT22;149;51.094;17.002;2023-02-28T15:08:45;4.30;99.90
324;DHT22;149;51.094;17.002;2023-02-28T15:11:17;4.10;99.90
324;DHT22;149;51.094;17.002;2023-02-28T15:13:51;4.10;99.90
324;DHT22;149;51.094;17.002;2023-02-28T15:16:37;4.00;99.90
324;DHT22;149;51.094;17.002;2023-02-28T15:19:11;4.00;99.90
324;DHT22;149;51.094;17.002;2023-02-28T15:21:48;3.90;99.90
324;DHT22;149;51.094;17.002;2023-02-28T15:24:23;3.70;99.90
324;DHT22;149;51.094;17.002;2023-02-28T15:26:57;3.70;99.90
324;DHT22;149;51.094;17.002;2023-02-28T15:29:26;3.80;99.90
324;DHT22;149;51.094;17.002;2023-02-28T15:32:01;3.60;99.90
324;DHT22;149;51.094;17.002;2023-02-28T15:34:37;3.70;99.90
324;DHT22;149;51.094;17.002;2023-02-28T15:42:38;3.60;99.90
324;DHT22;149;51.094;17.002;2023-02-28T15:45:05;3.70;99.90
324;DHT22;149;51.094;17.002;2023-02-28T15:47:53;3.60;99.90
324;DHT22;149;51.094;17.002;2023-02-28T15:50:21;3.70;99.90
324;DHT22;149;51.094;17.002;2023-02-28T15:52:49;3.60;99.90
324;DHT22;149;51.094;17.002;2023-02-28T15:55:21;3.60;99.90
324;DHT22;149;51.094;17.002;2023-02-28T15:57:52;3.50;99.90
324;DHT22;149;51.094;17.002;2023-02-28T16:00:22;3.40;99.90
324;DHT22;149;51.094;17.002;2023-02-28T16:02:49;3.40;99.90
324;DHT22;149;51.094;17.002;2023-02-28T16:05:30;3.40;99.90
324;DHT22;149;51.094;17.002;2023-02-28T16:08:11;3.20;99.90
324;DHT22;149;51.094;17.002;2023-02-28T16:10:38;3.20;99.90
324;DHT22;149;51.094;17.002;2023-02-28T16:13:05;3.00;99.90
324;DHT22;149;51.094;17.002;2023-02-28T16:15:38;2.90;99.90
324;DHT22;149;51.094;17.002;2023-02-28T16:18:11;2.80;99.90
324;DHT22;149;51.094;17.002;2023-02-28T16:20:38;2.80;99.90
324;DHT22;149;51.094;17.002;2023-02-28T16:23:05;2.70;99.90
324;DHT22;149;51.094;17.002;2023-02-28T16:25:40;2.70;99.90
324;DHT22;149;51.094;17.002;2023-02-28T16:28:27;2.60;99.90
324;DHT22;149;51.094;17.002;2023-02-28T16:31:00;2.60;99.90
324;DHT22;149;51.094;17.002;2023-02-28T16:33:30;2.70;99.90
324;DHT22;149;51.094;17.002;2023-02-28T16:35:57;2.60;99.90
324;DHT22;149;51.094;17.002;2023-02-28T16:38:24;2.40;99.90
324;DHT22;149;51.094;17.002;2023-02-28T16:40:56;2.30;99.90
324;DHT22;149;51.094;17.002;2023-02-28T16:43:26;2.30;99.90
324;DHT22;149;51.094;17.002;2023-02-28T16:45:56;2.30;99.90
324;DHT22;149;51.094;17.002;2023-02-28T16:48:27;2.20;99.90
324;DHT22;149;51.094;17.002;2023-02-28T16:50:53;2.10;99.90
324;DHT22;149;51.094;17.002;2023-02-28T16:53:20;2.00;99.90
324;DHT22;149;51.094;17.002;2023-02-28T16:55:47;1.90;99.90
324;DHT22;149;51.094;17.002;2023-02-28T16:58:16;2.00;99.90
324;DHT22;149;51.094;17.002;2023-02-28T17:00:43;1.90;99.90
324;DHT22;149;51.094;17.002;2023-02-28T17:03:25;1.90;99.90
324;DHT22;149;51.094;17.002;2023-02-28T17:05:59;2.20;99.90
324;DHT22;149;51.094;17.002;2023-02-28T17:08:25;2.40;99.90
324;DHT22;149;51.094;17.002;2023-02-28T17:10:55;2.30;99.90
324;DHT22;149;51.094;17.002;2023-02-28T17:13:23;2.40;99.90
324;DHT22;149;51.094;17.002;2023-02-28T17:15:50;2.00;99.90
324;DHT22;149;51.094;17.002;2023-02-28T17:18:20;2.00;99.90
324;DHT22;149;51.094;17.002;2023-02-28T17:20:50;2.00;99.90
324;DHT22;149;51.094;17.002;2023-02-28T17:23:17;1.80;99.90
324;DHT22;149;51.094;17.002;2023-02-28T17:25:45;1.80;99.90
324;DHT22;149;51.094;17.002;2023-02-28T17:28:23;1.90;99.90
324;DHT22;149;51.094;17.002;2023-02-28T17:30:52;1.90;99.90
324;DHT22;149;51.094;17.002;2023-02-28T17:33:20;2.00;99.90
324;DHT22;149;51.094;17.002;2023-02-28T17:35:47;1.90;99.90
324;DHT22;149;51.094;17.002;2023-02-28T17:38:18;1.90;99.90
324;DHT22;149;51.094;17.002;2023-02-28T17:40:46;1.80;99.90
324;DHT22;149;51.094;17.002;2023-02-28T17:43:14;1.70;99.90
324;DHT22;149;51.094;17.002;2023-02-28T17:45:42;1.70;99.90
324;DHT22;149;51.094;17.002;2023-02-28T17:48:11;1.70;99.90
324;DHT22;149;51.094;17.002;2023-02-28T17:50:39;1.40;99.90
324;DHT22;149;51.094;17.002;2023-02-28T17:53:06;1.60;99.90
324;DHT22;149;51.094;17.002;2023-02-28T17:55:33;1.60;99.90
324;DHT22;149;51.094;17.002;2023-02-28T17:58:01;1.50;99.90
324;DHT22;149;51.094;17.002;2023-02-28T18:00:33;1.40;99.90
324;DHT22;149;51.094;17.002;2023-02-28T18:03:00;1.20;99.90
324;DHT22;149;51.094;17.002;2023-02-28T18:05:28;1.30;99.90
324;DHT22;149;51.094;17.002;2023-02-28T18:07:56;1.50;99.90
324;DHT22;149;51.094;17.002;2023-02-28T18:10:24;1.50;99.90
324;DHT22;149;51.094;17.002;2023-02-28T18:12:52;1.50;99.90
324;DHT22;149;51.094;17.002;2023-02-28T18:15:21;1.60;99.90
324;DHT22;149;51.094;17.002;2023-02-28T18:17:51;1.30;99.90
324;DHT22;149;51.094;17.002;2023-02-28T18:20:18;1.40;99.90
324;DHT22;149;51.094;17.002;2023-02-28T18:22:45;1.10;99.90
324;DHT22;149;51.094;17.002;2023-02-28T18:25:14;1.00;99.90
324;DHT22;149;51.094;17.002;2023-02-28T18:27:43;1.00;99.90
324;DHT22;149;51.094;17.002;2023-02-28T18:30:20;0.90;99.90
324;DHT22;149;51.094;17.002;2023-02-28T18:32:47;0.90;99.90
324;DHT22;149;51.094;17.002;2023-02-28T18:35:14;0.90;99.90
324;DHT22;149;51.094;17.002;2023-02-28T18:37:41;0.80;99.90
324;DHT22;149;51.094;17.002;2023-02-28T18:40:08;0.80;99.90
324;DHT22;149;51.094;17.002;2023-02-28T18:42:35;0.80;99.90
324;DHT22;149;51.094;17.002;2023-02-28T18:45:05;1.00;99.90
324;DHT22;149;51.094;17.002;2023-02-28T18:47:34;1.10;99.90
324;DHT22;149;51.094;17.002;2023-02-28T18:50:03;1.10;99.90
324;DHT22;149;51.094;17.002;2023-02-28T18:52:31;0.70;99.90
324;DHT22;149;51.094;17.002;2023-02-28T18:54:59;0.50;99.90
324;DHT22;149;51.094;17.002;2023-02-28T18:57:27;0.50;99.90
324;DHT22;149;51.094;17.002;2023-02-28T18:59:55;0.60;99.90
324;DHT22;149;51.094;17.002;2023-02-28T19:02:23;0.80;99.90
324;DHT22;149;51.094;17.002;2023-02-28T19:04:51;0.70;99.90
324;DHT22;149;51.094;17.002;2023-02-28T19:07:21;0.80;99.90
324;DHT22;149;51.094;17.002;2023-02-28T19:09:48;0.90;99.90
324;DHT22;149;51.094;17.002;2023-02-28T19:12:16;0.80;99.90